createdAt,value
2018-09-22T09:02:39.434Z,1.90
2018-09-22T09:05:08.466Z,1.63
2018-09-22T09:07:37.631Z,1.63
2018-09-22T09:10:06.657Z,1.93
2018-09-22T09:12:35.807Z,2.00
2018-09-22T09:15:05.191Z,1.77
2018-09-22T09:17:34.225Z,1.77
2018-09-22T09:20:03.403Z,1.90
2018-09-22T09:22:32.749Z,1.90
2018-09-22T09:25:01.836Z,1.52
2018-09-22T09:27:31.276Z,1.50
2018-09-22T09:30:00.865Z,1.70
2018-09-22T09:32:30.316Z,2.27
2018-09-22T09:34:59.454Z,1.93
2018-09-22T09:37:28.770Z,1.70
2018-09-22T09:39:58.200Z,1.47
2018-09-22T09:42:27.257Z,1.47
2018-09-22T09:44:56.358Z,1.50
2018-09-22T09:47:25.637Z,1.60
2018-09-22T09:49:54.861Z,1.35
2018-09-22T09:52:24.478Z,1.45
2018-09-22T09:54:54.022Z,1.87
2018-09-22T09:57:23.461Z,1.40
2018-09-22T09:59:52.720Z,1.40
2018-09-22T10:02:21.974Z,1.45
2018-09-22T10:04:51.099Z,1.77
2018-09-22T10:07:20.190Z,1.05
2018-09-22T10:09:49.309Z,1.45
2018-09-22T10:12:18.415Z,1.32
2018-09-22T10:14:47.714Z,1.25
2018-09-22T10:17:16.755Z,1.40
2018-09-22T10:19:46.248Z,1.67
2018-09-22T10:22:15.264Z,1.60
2018-09-22T10:24:44.360Z,1.60
2018-09-22T10:27:13.838Z,1.22
2018-09-22T10:29:42.780Z,1.30
2018-09-22T10:32:11.864Z,1.35
2018-09-22T10:34:41.110Z,1.25
2018-09-22T10:37:10.346Z,1.45
2018-09-22T10:39:39.628Z,1.02
2018-09-22T10:42:08.916Z,1.15
2018-09-22T10:44:37.877Z,1.27
2018-09-22T10:47:07.397Z,1.20
2018-09-22T10:49:36.637Z,1.17
2018-09-22T10:52:06.310Z,1.10
2018-09-22T10:54:35.634Z,1.27
2018-09-22T10:57:04.938Z,1.42
2018-09-22T10:59:34.542Z,1.50
2018-09-22T11:02:03.872Z,1.00
2018-09-22T11:04:33.089Z,1.30
2018-09-22T11:07:03.064Z,3.52
2018-09-22T11:09:32.384Z,1.20
2018-09-22T11:12:01.438Z,1.20
2018-09-22T11:14:30.453Z,1.20
2018-09-22T11:16:59.545Z,1.40
2018-09-22T11:19:28.574Z,1.40
2018-09-22T11:21:57.663Z,1.37
2018-09-22T11:24:26.993Z,1.90
2018-09-22T11:26:56.245Z,1.40
2018-09-22T11:29:25.063Z,1.10
2018-09-22T11:31:54.986Z,1.30
2018-09-22T11:34:24.535Z,1.20
2018-09-22T11:36:53.837Z,1.47
2018-09-22T11:39:23.025Z,1.37
2018-09-22T11:41:52.762Z,1.60
2018-09-22T11:44:21.990Z,1.00
2018-09-22T11:46:51.071Z,1.17
2018-09-22T11:49:20.484Z,1.90
2018-09-22T11:51:49.579Z,2.20
2018-09-22T11:54:18.557Z,1.87
2018-09-22T11:56:47.643Z,2.33
2018-09-22T11:59:16.824Z,1.50
2018-09-22T12:01:45.827Z,1.60
2018-09-22T12:04:14.906Z,1.30
2018-09-22T12:06:44.048Z,1.60
2018-09-22T12:09:13.291Z,1.40
2018-09-22T12:11:42.712Z,1.73
2018-09-22T12:14:12.003Z,1.70
2018-09-22T12:16:41.044Z,1.47
2018-09-22T12:19:10.289Z,1.43
2018-09-22T12:21:39.494Z,1.20
2018-09-22T12:24:08.679Z,1.40
2018-09-22T12:26:38.036Z,1.53
2018-09-22T12:29:07.481Z,1.90
2018-09-22T12:31:36.630Z,1.43
2018-09-22T12:34:06.366Z,1.23
2018-09-22T12:36:35.803Z,1.50
2018-09-22T12:39:08.680Z,1.73
2018-09-22T12:41:39.022Z,1.57
2018-09-22T12:44:08.748Z,1.73
2018-09-22T12:46:37.969Z,1.27
2018-09-22T12:49:07.104Z,1.00
2018-09-22T12:51:36.718Z,1.53
2018-09-22T12:54:05.860Z,1.20
2018-09-22T12:56:35.072Z,1.57
2018-09-22T12:59:04.757Z,1.27
2018-09-22T13:01:34.633Z,1.30
2018-09-22T13:04:03.838Z,1.33
2018-09-22T13:06:33.090Z,1.70
2018-09-22T13:09:02.691Z,1.47
2018-09-22T13:11:31.983Z,1.30
2018-09-22T13:14:01.294Z,1.40
2018-09-22T13:16:30.728Z,1.73
2018-09-22T13:18:59.901Z,1.27
2018-09-22T13:21:29.055Z,1.50
2018-09-22T13:23:58.315Z,1.10
2018-09-22T13:26:27.435Z,1.47
2018-09-22T13:28:56.602Z,1.30
2018-09-22T13:31:32.410Z,1.53
2018-09-22T13:34:10.315Z,1.50
2018-09-22T13:42:40.314Z,1.60
2018-09-22T13:45:10.391Z,1.53
2018-09-22T13:47:42.232Z,1.50
2018-09-22T13:50:12.585Z,1.17
2018-09-22T13:52:43.086Z,1.30
2018-09-22T13:55:14.501Z,1.50
2018-09-22T13:57:57.011Z,1.33
2018-09-22T14:00:29.713Z,1.00
2018-09-22T14:03:07.140Z,1.50
2018-09-22T14:05:42.012Z,1.50
2018-09-22T14:08:28.560Z,1.30
2018-09-22T14:11:01.460Z,1.47
2018-09-22T14:13:42.701Z,1.30
2018-09-22T14:19:09.264Z,2.77
2018-09-22T14:22:52.958Z,3.10
2018-09-22T14:25:36.863Z,2.00
2018-09-22T14:28:16.990Z,1.40
2018-09-22T14:30:56.474Z,2.13
2018-09-22T14:33:32.500Z,1.70
2018-09-22T14:36:13.675Z,1.73
2018-09-22T14:38:49.984Z,2.60
2018-09-22T14:44:28.224Z,1.53
2018-09-22T14:50:01.022Z,1.30
2018-09-22T14:52:39.600Z,1.30
2018-09-22T14:55:27.712Z,1.93
2018-09-22T14:58:01.819Z,1.23
2018-09-22T15:18:20.565Z,1.43
2018-09-22T15:20:50.160Z,1.83
2018-09-22T15:23:20.102Z,1.97
2018-09-22T15:25:49.742Z,1.60
2018-09-22T15:28:19.167Z,2.23
2018-09-22T15:30:48.703Z,1.57
2018-09-22T15:33:18.115Z,1.30
2018-09-22T15:35:47.769Z,1.97
2018-09-22T15:38:19.410Z,1.27
2018-09-22T15:40:48.873Z,1.23
2018-09-22T15:43:18.074Z,1.47
2018-09-22T15:45:48.488Z,1.30
2018-09-22T15:48:18.126Z,1.70
2018-09-22T15:50:48.244Z,1.77
2018-09-22T15:53:17.719Z,1.30
2018-09-22T15:55:47.062Z,1.73
2018-09-22T15:58:16.718Z,1.30
2018-09-22T16:00:47.890Z,1.27
2018-09-22T16:03:17.295Z,2.07
2018-09-22T16:05:47.426Z,1.70
2018-09-22T16:08:17.899Z,1.40
2018-09-22T16:10:47.311Z,1.40
2018-09-22T16:13:16.587Z,1.97
2018-09-22T16:15:46.069Z,2.30
2018-09-22T16:18:15.566Z,1.87
2018-09-22T16:20:46.181Z,1.30
2018-09-22T16:23:17.592Z,1.10
2018-09-22T16:25:47.134Z,1.60
2018-09-22T16:28:18.550Z,1.23
2018-09-22T16:30:48.221Z,1.50
2018-09-22T16:33:18.410Z,1.80
2018-09-22T16:35:48.033Z,1.50
2018-09-22T16:38:17.876Z,1.60
2018-09-22T16:40:47.548Z,1.50
2018-09-22T16:43:17.615Z,1.60
2018-09-22T16:45:47.434Z,1.40
2018-09-22T16:48:16.848Z,1.40
2018-09-22T16:50:46.148Z,0.97
2018-09-22T16:53:15.660Z,1.30
2018-09-22T16:55:44.962Z,1.60
2018-09-22T16:58:14.183Z,1.57
2018-09-22T17:00:44.845Z,1.73
2018-09-22T17:03:14.523Z,1.37
2018-09-22T17:05:44.750Z,2.03
2018-09-22T17:08:13.949Z,1.90
2018-09-22T17:10:44.028Z,2.20
2018-09-22T17:13:13.210Z,1.50
2018-09-22T17:15:42.387Z,2.17
2018-09-22T17:18:11.681Z,1.77
2018-09-22T17:20:42.054Z,1.77
2018-09-22T17:23:11.651Z,1.90
2018-09-22T17:25:41.249Z,1.87
2018-09-22T17:28:10.490Z,2.00
2018-09-22T17:30:39.873Z,2.00
2018-09-22T17:33:09.340Z,1.80
2018-09-22T17:35:38.605Z,2.07
2018-09-22T17:38:07.904Z,1.93
2018-09-22T17:40:37.267Z,1.87
2018-09-22T17:43:06.864Z,1.97
2018-09-22T17:45:36.199Z,1.80
2018-09-22T17:48:05.866Z,1.50
2018-09-22T17:50:35.813Z,1.80
2018-09-22T17:53:05.476Z,2.20
2018-09-22T17:55:34.483Z,1.83
2018-09-22T17:58:03.954Z,1.93
2018-09-22T18:00:35.331Z,1.90
2018-09-22T18:03:05.263Z,1.80
2018-09-22T18:05:34.552Z,1.50
2018-09-22T18:08:03.808Z,1.70
2018-09-22T18:10:33.230Z,1.87
2018-09-22T18:13:02.316Z,1.50
2018-09-22T18:15:31.890Z,1.87
2018-09-22T18:18:01.536Z,1.87
2018-09-22T18:20:31.032Z,1.60
2018-09-22T18:23:00.295Z,1.60
2018-09-22T18:25:30.059Z,1.20
2018-09-22T18:27:59.422Z,1.60
2018-09-22T18:30:29.130Z,2.00
2018-09-22T18:32:58.453Z,1.83
2018-09-22T18:35:28.238Z,1.60
2018-09-22T18:37:57.849Z,1.80
2018-09-22T18:40:27.009Z,1.90
2018-09-22T18:42:56.597Z,1.90
2018-09-22T18:45:26.253Z,2.20
2018-09-22T18:47:57.508Z,2.40
2018-09-22T18:50:27.080Z,3.23
2018-09-22T18:52:57.794Z,3.00
2018-09-22T18:55:26.760Z,2.03
2018-09-22T18:57:56.338Z,2.57
2018-09-22T19:00:25.352Z,2.33
2018-09-22T19:02:55.054Z,2.83
2018-09-22T19:05:24.243Z,2.47
2018-09-22T19:07:54.373Z,2.33
2018-09-22T19:10:23.471Z,2.20
2018-09-22T19:12:53.137Z,2.80
2018-09-22T19:15:33.251Z,2.43
2018-09-22T19:19:06.448Z,2.63
2018-09-22T19:21:45.143Z,2.57
2018-09-22T19:24:18.664Z,2.30
2018-09-22T19:26:58.217Z,2.43
2018-09-22T19:29:35.435Z,2.40
2018-09-22T19:32:09.908Z,2.87
2018-09-22T19:34:57.237Z,2.83
2018-09-22T19:37:32.076Z,2.00
2018-09-22T19:40:07.939Z,2.87
2018-09-22T19:42:42.315Z,2.50
2018-09-22T19:45:16.613Z,2.37
2018-09-22T19:47:53.726Z,2.47
2018-09-22T19:51:28.522Z,1.97
2018-09-22T19:54:00.170Z,2.80
2018-09-22T19:56:36.881Z,2.27
2018-09-22T19:59:06.314Z,2.30
2018-09-22T20:01:36.404Z,2.60
2018-09-22T20:04:05.957Z,2.30
2018-09-22T20:06:35.727Z,2.50
2018-09-22T20:09:06.060Z,2.13
2018-09-22T20:11:35.671Z,2.97
2018-09-22T20:14:04.735Z,2.63
2018-09-22T20:16:33.825Z,2.57
2018-09-22T20:19:03.555Z,2.40
2018-09-22T20:21:32.845Z,2.60
2018-09-22T20:24:02.322Z,2.63
2018-09-22T20:26:31.483Z,3.10
2018-09-22T20:29:01.464Z,2.97
2018-09-22T20:31:30.778Z,3.80
2018-09-22T20:34:00.653Z,2.30
2018-09-22T20:36:29.753Z,2.30
2018-09-22T20:38:58.865Z,2.30
2018-09-22T20:41:27.854Z,2.10
2018-09-22T20:43:56.900Z,2.10
2018-09-22T20:46:25.953Z,2.30
2018-09-22T20:48:55.495Z,2.00
2018-09-22T20:51:25.825Z,2.60
2018-09-22T20:53:55.319Z,2.23
2018-09-22T20:56:24.934Z,2.57
2018-09-22T20:58:54.276Z,2.93
2018-09-22T21:01:24.157Z,3.10
2018-09-22T21:03:53.527Z,3.17
2018-09-22T21:06:23.377Z,3.50
2018-09-22T21:08:52.640Z,3.33
2018-09-22T21:11:22.157Z,2.70
2018-09-22T21:13:51.894Z,3.10
2018-09-22T21:16:21.518Z,3.10
2018-09-22T21:18:50.975Z,2.90
2018-09-22T21:21:20.193Z,3.03
2018-09-22T21:23:49.834Z,2.93
2018-09-22T21:26:18.771Z,2.73
2018-09-22T21:28:47.989Z,3.27
2018-09-22T21:31:17.796Z,3.27
2018-09-22T21:33:47.482Z,4.00
2018-09-22T21:36:16.814Z,3.53
2018-09-22T21:38:46.132Z,3.57
2018-09-22T21:41:16.484Z,3.00
2018-09-22T21:43:46.429Z,3.00
2018-09-22T21:46:15.782Z,2.67
2018-09-22T21:48:45.300Z,2.70
2018-09-22T21:51:15.165Z,3.77
2018-09-22T21:53:44.589Z,2.90
2018-09-22T21:56:14.248Z,3.07
2018-09-22T21:58:43.684Z,2.90
2018-09-22T22:01:18.433Z,3.20
2018-09-22T22:03:47.719Z,3.30
2018-09-22T22:06:17.227Z,3.20
2018-09-22T22:08:47.025Z,3.07
2018-09-22T22:11:16.091Z,3.20
2018-09-22T22:13:45.506Z,3.33
2018-09-22T22:16:14.806Z,3.47
2018-09-22T22:18:44.144Z,4.40
2018-09-22T22:21:13.129Z,3.50
2018-09-22T22:23:42.560Z,3.27
2018-09-22T22:26:11.637Z,3.63
2018-09-22T22:28:41.014Z,3.70
2018-09-22T22:31:10.471Z,3.77
2018-09-22T22:33:40.415Z,3.57
2018-09-22T22:36:09.677Z,4.97
2018-09-22T22:38:38.707Z,4.80
2018-09-22T22:41:08.791Z,4.20
2018-09-22T22:43:38.413Z,4.20
2018-09-22T22:46:09.526Z,4.00
2018-09-22T22:48:38.782Z,3.97
2018-09-22T22:51:09.080Z,4.20
2018-09-22T22:53:38.494Z,4.10
2018-09-22T22:56:08.800Z,4.20
2018-09-22T22:58:37.829Z,3.90
2018-09-22T23:01:07.768Z,4.33
2018-09-22T23:03:37.404Z,3.80
2018-09-22T23:06:06.646Z,4.40
2018-09-22T23:08:35.911Z,4.50
2018-09-22T23:11:05.228Z,4.10
2018-09-22T23:13:34.286Z,4.17
2018-09-22T23:16:03.788Z,4.73
2018-09-22T23:18:33.399Z,4.70
2018-09-22T23:21:02.591Z,4.70
2018-09-22T23:23:32.824Z,4.87
2018-09-22T23:26:01.926Z,4.67
2018-09-22T23:28:31.661Z,4.17
2018-09-22T23:31:01.000Z,4.53
2018-09-22T23:33:30.241Z,3.97
2018-09-22T23:35:59.271Z,4.37
2018-09-22T23:38:28.533Z,4.20
2018-09-22T23:40:58.789Z,4.23
2018-09-22T23:43:27.992Z,3.83
2018-09-22T23:45:56.940Z,4.57
2018-09-22T23:48:26.412Z,4.30
2018-09-22T23:50:55.721Z,2.80
2018-09-22T23:53:25.097Z,3.10
2018-09-22T23:55:54.282Z,2.47
2018-09-22T23:58:23.248Z,2.60
